createdAt,value
2022-09-28T00:02:34.799Z,1.10
2022-09-28T00:05:27.843Z,0.60
2022-09-28T00:08:20.956Z,0.77
2022-09-28T00:11:15.439Z,0.80
2022-09-28T00:14:09.276Z,0.70
2022-09-28T00:17:01.802Z,0.70
2022-09-28T00:19:57.876Z,0.65
2022-09-28T00:22:51.201Z,1.00
2022-09-28T00:25:44.324Z,0.90
2022-09-28T00:28:37.177Z,0.80
2022-09-28T00:31:32.975Z,0.88
2022-09-28T00:34:26.362Z,0.80
2022-09-28T00:37:20.965Z,0.75
2022-09-28T00:40:14.080Z,0.60
2022-09-28T00:43:20.048Z,0.60
2022-09-28T00:46:17.791Z,0.70
2022-09-28T00:49:16.332Z,0.80
2022-09-28T00:52:11.723Z,0.80
2022-09-28T00:55:09.706Z,0.75
2022-09-28T00:58:06.342Z,0.70
2022-09-28T01:01:00.988Z,0.80
2022-09-28T01:03:54.657Z,0.40
2022-09-28T01:06:48.436Z,0.70
2022-09-28T01:09:44.760Z,0.80
2022-09-28T01:12:39.693Z,0.70
2022-09-28T01:15:39.933Z,1.02
2022-09-28T01:18:41.848Z,0.77
2022-09-28T01:21:46.271Z,0.70
2022-09-28T01:24:43.339Z,0.80
2022-09-28T01:27:44.122Z,0.75
2022-09-28T01:30:44.799Z,0.60
2022-09-28T01:33:40.970Z,0.70
2022-09-28T01:36:37.224Z,0.75
2022-09-28T01:39:33.355Z,0.60
2022-09-28T01:42:30.844Z,0.65
2022-09-28T01:45:30.923Z,0.57
2022-09-28T01:48:28.719Z,0.60
2022-09-28T01:51:34.616Z,0.73
2022-09-28T01:54:33.904Z,0.80
2022-09-28T01:57:35.084Z,0.70
2022-09-28T02:00:30.025Z,0.60
2022-09-28T02:03:30.243Z,0.73
2022-09-28T02:06:27.413Z,0.77
2022-09-28T02:09:24.615Z,0.45
2022-09-28T02:12:25.190Z,0.57
2022-09-28T02:15:22.649Z,0.63
2022-09-28T02:18:17.852Z,0.68
2022-09-28T02:21:16.160Z,0.40
2022-09-28T02:24:20.624Z,0.55
2022-09-28T02:27:17.902Z,0.63
2022-09-28T02:30:11.647Z,0.60
2022-09-28T02:33:12.565Z,0.63
2022-09-28T02:36:08.082Z,0.50
2022-09-28T02:39:02.232Z,0.70
2022-09-28T02:42:02.883Z,0.70
2022-09-28T02:45:16.677Z,0.80
2022-09-28T02:48:35.969Z,0.45
2022-09-28T02:51:44.140Z,0.50
2022-09-28T02:55:04.277Z,0.43
2022-09-28T02:58:17.896Z,0.47
2022-09-28T03:01:21.732Z,0.30
2022-09-28T03:04:29.109Z,0.40
2022-09-28T03:07:27.735Z,0.40
2022-09-28T03:10:26.196Z,0.40
2022-09-28T03:13:19.520Z,0.60
2022-09-28T03:16:14.829Z,0.47
2022-09-28T03:19:08.372Z,0.60
2022-09-28T03:22:01.671Z,0.47
2022-09-28T03:24:56.557Z,0.60
2022-09-28T03:27:50.243Z,0.70
2022-09-28T03:30:43.400Z,0.57
2022-09-28T03:33:36.359Z,0.52
2022-09-28T03:36:29.172Z,0.60
2022-09-28T03:39:22.104Z,0.60
2022-09-28T03:42:16.276Z,0.50
2022-09-28T03:45:09.848Z,0.45
2022-09-28T03:48:03.194Z,0.43
2022-09-28T03:50:56.739Z,0.43
2022-09-28T03:53:50.399Z,0.30
2022-09-28T03:56:43.479Z,0.40
2022-09-28T03:59:37.660Z,0.32
2022-09-28T04:02:31.349Z,0.63
2022-09-28T04:05:24.326Z,0.60
2022-09-28T04:08:17.319Z,0.40
2022-09-28T04:11:09.865Z,0.40
2022-09-28T04:14:03.056Z,0.47
2022-09-28T04:16:57.201Z,0.50
2022-09-28T04:19:50.505Z,0.20
2022-09-28T04:22:44.480Z,0.38
2022-09-28T04:25:37.059Z,0.43
2022-09-28T04:28:47.665Z,0.40
2022-09-28T04:31:44.940Z,0.47
2022-09-28T04:34:43.769Z,0.60
2022-09-28T04:37:38.163Z,0.40
2022-09-28T04:40:31.176Z,0.60
2022-09-28T04:43:24.344Z,0.40
2022-09-28T04:46:17.265Z,0.52
2022-09-28T04:49:11.502Z,0.50
2022-09-28T04:52:05.786Z,0.50
2022-09-28T04:54:59.198Z,0.60
2022-09-28T04:57:52.099Z,0.50
2022-09-28T05:00:45.292Z,0.60
2022-09-28T05:03:38.242Z,0.50
2022-09-28T05:06:31.290Z,0.40
2022-09-28T05:09:25.239Z,0.40
2022-09-28T05:12:18.027Z,0.65
2022-09-28T05:15:11.891Z,0.50
2022-09-28T05:18:05.631Z,0.52
2022-09-28T05:20:59.561Z,0.50
2022-09-28T05:23:52.484Z,0.50
2022-09-28T05:26:46.789Z,0.40
2022-09-28T05:29:40.310Z,0.50
2022-09-28T05:32:33.198Z,0.60
2022-09-28T05:35:26.282Z,0.60
2022-09-28T05:38:19.410Z,0.63
2022-09-28T05:41:12.651Z,0.50
2022-09-28T05:44:07.997Z,0.70
2022-09-28T05:47:01.239Z,0.45
2022-09-28T05:49:54.501Z,0.50
2022-09-28T05:52:47.113Z,0.60
2022-09-28T05:55:40.867Z,0.35
2022-09-28T05:58:34.345Z,0.50
2022-09-28T06:01:28.752Z,0.57
2022-09-28T06:04:22.390Z,0.60
2022-09-28T06:07:15.272Z,0.60
2022-09-28T06:10:08.830Z,0.60
2022-09-28T06:13:03.113Z,0.50
2022-09-28T06:15:56.255Z,0.57
2022-09-28T06:18:50.706Z,0.75
2022-09-28T06:21:44.291Z,0.75
2022-09-28T06:24:37.306Z,0.50
2022-09-28T06:27:30.329Z,0.52
2022-09-28T06:30:26.999Z,0.60
2022-09-28T06:33:20.099Z,0.65
2022-09-28T06:36:14.695Z,0.43
2022-09-28T06:39:08.343Z,0.60
2022-09-28T06:42:03.243Z,0.60
2022-09-28T06:44:56.349Z,0.80
2022-09-28T06:47:54.423Z,0.80
2022-09-28T06:50:47.457Z,1.00
2022-09-28T06:53:41.608Z,0.60
2022-09-28T06:56:34.338Z,0.60
2022-09-28T06:59:27.319Z,0.75
2022-09-28T07:02:20.332Z,0.70
2022-09-28T07:05:14.958Z,0.80
2022-09-28T07:08:08.505Z,0.60
2022-09-28T07:11:06.899Z,0.55
2022-09-28T07:14:00.064Z,0.63
2022-09-28T07:17:12.633Z,0.55
2022-09-28T07:20:16.236Z,0.60
2022-09-28T07:23:19.016Z,0.60
2022-09-28T07:26:14.769Z,0.70
2022-09-28T07:29:08.311Z,0.82
2022-09-28T07:32:01.457Z,0.70
2022-09-28T07:34:58.846Z,0.63
2022-09-28T07:38:00.251Z,0.63
2022-09-28T07:41:11.458Z,0.50
2022-09-28T07:44:06.451Z,0.60
2022-09-28T07:46:59.284Z,0.60
2022-09-28T07:49:52.554Z,0.80
2022-09-28T07:52:45.552Z,0.43
2022-09-28T07:55:38.547Z,0.55
2022-09-28T07:58:32.828Z,0.70
2022-09-28T08:01:27.828Z,0.70
2022-09-28T08:04:21.487Z,0.65
2022-09-28T08:07:16.626Z,1.23
2022-09-28T08:10:11.919Z,0.85
2022-09-28T08:13:08.582Z,0.63
2022-09-28T08:16:03.095Z,0.73
2022-09-28T08:18:57.826Z,0.60
2022-09-28T08:21:50.469Z,0.73
2022-09-28T08:24:43.537Z,0.95
2022-09-28T08:27:36.838Z,0.60
2022-09-28T08:30:31.932Z,0.88
2022-09-28T08:33:25.475Z,0.60
2022-09-28T08:36:19.636Z,1.05
2022-09-28T08:39:12.687Z,0.52
2022-09-28T08:42:31.565Z,0.70
2022-09-28T08:45:28.354Z,0.60
2022-09-28T08:48:51.815Z,0.60
2022-09-28T08:52:01.607Z,0.60
2022-09-28T08:54:59.929Z,0.70
2022-09-28T08:57:59.600Z,0.60
2022-09-28T09:00:54.302Z,0.80
2022-09-28T09:03:49.564Z,0.60
2022-09-28T09:06:59.042Z,0.70
2022-09-28T09:10:04.096Z,0.50
2022-09-28T09:13:07.359Z,0.70
2022-09-28T09:16:09.908Z,0.63
2022-09-28T09:19:11.433Z,0.52
2022-09-28T09:22:16.630Z,0.63
2022-09-28T09:25:20.569Z,0.80
2022-09-28T09:28:45.900Z,0.52
2022-09-28T09:31:55.582Z,0.50
2022-09-28T09:35:19.264Z,0.60
2022-09-28T09:38:41.693Z,0.75
2022-09-28T09:41:51.744Z,0.70
2022-09-28T09:45:04.092Z,0.60
2022-09-28T09:48:02.930Z,0.50
2022-09-28T09:51:02.054Z,0.70
2022-09-28T09:54:01.328Z,0.50
2022-09-28T09:56:59.550Z,0.63
2022-09-28T09:59:52.703Z,0.52
2022-09-28T10:02:48.343Z,0.60
2022-09-28T10:05:47.700Z,0.75
2022-09-28T10:08:45.308Z,0.63
2022-09-28T10:11:44.269Z,0.55
2022-09-28T10:14:37.881Z,0.88
2022-09-28T10:17:31.560Z,0.60
2022-09-28T10:20:25.559Z,0.80
2022-09-28T10:23:23.638Z,0.43
2022-09-28T10:26:25.092Z,0.57
2022-09-28T10:29:23.793Z,0.73
2022-09-28T10:32:22.951Z,0.50
2022-09-28T10:35:24.383Z,0.57
2022-09-28T10:38:19.441Z,0.60
2022-09-28T10:41:16.557Z,0.80
2022-09-28T10:44:21.265Z,0.60
2022-09-28T10:47:19.363Z,0.65
2022-09-28T10:50:21.956Z,0.52
2022-09-28T10:53:20.470Z,0.50
2022-09-28T10:56:21.056Z,0.60
2022-09-28T10:59:43.348Z,0.60
2022-09-28T11:02:38.002Z,0.50
2022-09-28T11:05:32.225Z,0.55
2022-09-28T11:08:29.456Z,0.50
2022-09-28T11:11:22.502Z,0.73
2022-09-28T11:14:27.051Z,0.55
2022-09-28T11:17:27.767Z,0.57
2022-09-28T11:20:35.898Z,0.60
2022-09-28T11:23:32.294Z,0.45
2022-09-28T11:26:25.923Z,0.68
2022-09-28T11:29:26.685Z,0.45
2022-09-28T11:32:21.711Z,0.40
2022-09-28T11:35:20.706Z,0.50
2022-09-28T11:38:33.471Z,0.63
2022-09-28T11:41:39.203Z,0.60
2022-09-28T11:44:44.514Z,0.43
2022-09-28T11:47:49.897Z,0.40
2022-09-28T11:50:49.322Z,0.40
2022-09-28T11:53:49.418Z,0.70
2022-09-28T11:56:46.217Z,0.70
2022-09-28T11:59:53.660Z,0.65
2022-09-28T12:02:52.175Z,0.60
2022-09-28T12:05:50.346Z,0.55
2022-09-28T12:08:51.885Z,0.40
2022-09-28T12:11:49.255Z,0.43
2022-09-28T12:14:43.697Z,0.60
2022-09-28T12:17:43.787Z,0.45
2022-09-28T12:20:42.944Z,0.57
2022-09-28T12:23:39.172Z,0.50
2022-09-28T12:26:38.138Z,0.50
2022-09-28T12:29:40.083Z,0.50
2022-09-28T12:32:39.032Z,0.60
2022-09-28T12:35:41.866Z,0.47
2022-09-28T12:39:17.713Z,0.55
2022-09-28T12:42:21.575Z,0.50
2022-09-28T12:45:38.646Z,0.50
2022-09-28T12:52:37.978Z,0.40
2022-09-28T12:55:56.408Z,0.57
2022-09-28T12:59:01.996Z,0.45
2022-09-28T13:02:20.117Z,0.60
2022-09-28T13:05:25.740Z,0.70
2022-09-28T13:08:27.621Z,0.50
2022-09-28T13:11:31.747Z,0.50
2022-09-28T13:14:50.177Z,0.60
2022-09-28T13:17:54.344Z,0.60
2022-09-28T13:21:04.831Z,0.43
2022-09-28T13:24:14.819Z,0.57
2022-09-28T13:27:25.032Z,0.35
2022-09-28T13:30:19.747Z,0.60
2022-09-28T13:33:19.862Z,0.70
2022-09-28T13:36:47.172Z,0.52
2022-09-28T13:39:53.199Z,0.43
2022-09-28T13:43:10.568Z,0.52
2022-09-28T13:46:11.451Z,0.50
2022-09-28T13:49:12.273Z,0.50
2022-09-28T13:52:10.379Z,0.55
2022-09-28T13:55:17.858Z,0.60
2022-09-28T13:58:20.711Z,0.50
2022-09-28T14:01:18.697Z,0.60
2022-09-28T14:04:16.375Z,0.80
2022-09-28T14:07:12.428Z,0.55
2022-09-28T14:10:18.828Z,0.60
2022-09-28T14:13:12.180Z,0.63
2022-09-28T14:16:22.874Z,0.40
2022-09-28T14:19:21.548Z,0.50
2022-09-28T14:22:22.094Z,0.50
2022-09-28T14:25:23.635Z,0.40
2022-09-28T14:28:34.519Z,0.50
2022-09-28T14:31:29.991Z,0.40
2022-09-28T14:34:36.105Z,0.60
2022-09-28T14:37:50.644Z,0.60
2022-09-28T14:41:13.643Z,0.50
2022-09-28T14:44:09.120Z,0.90
2022-09-28T14:47:34.225Z,0.40
2022-09-28T14:50:29.377Z,0.50
2022-09-28T14:53:24.859Z,0.40
2022-09-28T14:56:20.268Z,0.40
2022-09-28T14:59:20.661Z,0.50
2022-09-28T15:02:21.170Z,0.45
2022-09-28T15:05:18.974Z,0.50
2022-09-28T15:08:12.796Z,0.40
2022-09-28T15:11:06.795Z,0.40
2022-09-28T15:14:10.542Z,0.50
2022-09-28T15:17:11.123Z,0.60
2022-09-28T15:20:23.715Z,0.50
2022-09-28T15:23:33.776Z,0.50
2022-09-28T15:26:30.942Z,0.50
2022-09-28T15:29:27.245Z,0.50
2022-09-28T15:32:24.746Z,0.50
2022-09-28T15:35:20.685Z,0.63
2022-09-28T15:38:17.021Z,0.50
2022-09-28T15:41:11.189Z,0.40
2022-09-28T15:44:29.806Z,0.43
2022-09-28T15:47:27.481Z,0.43
2022-09-28T15:50:23.812Z,0.40
2022-09-28T15:53:19.848Z,0.50
2022-09-28T15:56:13.016Z,0.50
2022-09-28T15:59:10.701Z,0.40
2022-09-28T16:02:12.624Z,0.35
2022-09-28T16:05:29.745Z,0.40
2022-09-28T16:08:25.456Z,0.68
2022-09-28T16:11:24.332Z,0.40
2022-09-28T16:14:22.988Z,0.47
2022-09-28T16:17:20.416Z,0.40
2022-09-28T16:20:26.550Z,0.30
2022-09-28T16:23:24.139Z,0.60
2022-09-28T16:26:31.240Z,0.35
2022-09-28T16:29:28.637Z,0.30
2022-09-28T16:32:41.630Z,0.40
2022-09-28T16:35:51.943Z,0.40
2022-09-28T16:38:45.500Z,0.45
2022-09-28T16:41:40.693Z,0.50
2022-09-28T16:44:35.777Z,0.80
2022-09-28T16:47:34.011Z,0.47
2022-09-28T16:50:28.494Z,0.60
2022-09-28T16:53:39.155Z,0.60
2022-09-28T16:56:33.647Z,0.55
2022-09-28T16:59:26.890Z,0.43
2022-09-28T17:05:41.178Z,0.57
2022-09-28T17:08:35.590Z,0.68
2022-09-28T17:11:29.114Z,0.50
2022-09-28T17:14:23.319Z,0.52
2022-09-28T17:17:17.321Z,0.50
2022-09-28T17:20:22.328Z,0.47
2022-09-28T17:26:18.560Z,0.70
2022-09-28T17:29:14.774Z,0.82
2022-09-28T17:32:17.621Z,0.50
2022-09-28T17:35:24.044Z,0.80
2022-09-28T17:38:18.940Z,0.60
2022-09-28T17:41:16.791Z,0.90
2022-09-28T17:44:15.906Z,0.65
2022-09-28T17:47:10.491Z,0.70
2022-09-28T17:50:11.369Z,0.85
2022-09-28T17:53:06.351Z,0.60
2022-09-28T17:56:01.977Z,0.63
2022-09-28T17:58:55.024Z,1.10
2022-09-28T18:01:48.299Z,1.02
2022-09-28T18:04:51.666Z,0.90
2022-09-28T18:07:47.692Z,0.93
2022-09-28T18:10:40.586Z,1.05
2022-09-28T18:13:35.319Z,1.10
2022-09-28T18:16:29.379Z,1.00
2022-09-28T18:19:23.111Z,0.98
2022-09-28T18:22:15.938Z,0.90
2022-09-28T18:25:10.965Z,1.13
2022-09-28T18:28:03.865Z,0.82
2022-09-28T18:30:59.024Z,1.10
2022-09-28T18:33:52.039Z,1.08
2022-09-28T18:36:44.898Z,1.13
2022-09-28T18:39:38.761Z,1.08
2022-09-28T18:42:35.570Z,0.85
2022-09-28T18:45:29.218Z,1.40
2022-09-28T18:48:27.662Z,0.95
2022-09-28T18:51:21.247Z,0.90
2022-09-28T18:54:14.686Z,1.25
2022-09-28T18:57:08.039Z,1.10
2022-09-28T19:00:00.857Z,1.58
2022-09-28T19:02:54.673Z,1.20
2022-09-28T19:05:48.972Z,0.93
2022-09-28T19:08:42.431Z,1.25
2022-09-28T19:11:36.015Z,1.20
2022-09-28T19:14:28.856Z,1.38
2022-09-28T19:17:21.807Z,1.00
2022-09-28T19:20:14.806Z,1.05
2022-09-28T19:23:08.921Z,1.00
2022-09-28T19:26:04.324Z,0.90
2022-09-28T19:28:59.738Z,0.90
2022-09-28T19:31:53.384Z,1.02
2022-09-28T19:34:46.481Z,0.95
2022-09-28T19:37:39.932Z,1.15
2022-09-28T19:40:38.243Z,1.42
2022-09-28T19:43:34.753Z,1.00
2022-09-28T19:46:28.940Z,1.15
2022-09-28T19:49:23.672Z,1.23
2022-09-28T19:52:17.483Z,1.40
2022-09-28T19:55:11.084Z,1.25
2022-09-28T19:58:05.489Z,1.30
2022-09-28T20:00:59.230Z,1.23
2022-09-28T20:03:51.722Z,1.00
2022-09-28T20:06:45.709Z,1.20
2022-09-28T20:09:38.886Z,1.08
2022-09-28T20:12:32.080Z,1.40
2022-09-28T20:15:26.705Z,1.55
2022-09-28T20:18:19.949Z,1.15
2022-09-28T20:21:17.200Z,1.23
2022-09-28T20:24:12.405Z,1.48
2022-09-28T20:27:05.896Z,1.20
2022-09-28T20:29:59.921Z,1.25
2022-09-28T20:32:54.612Z,1.20
2022-09-28T20:35:47.933Z,1.17
2022-09-28T20:38:41.272Z,1.30
2022-09-28T20:41:35.611Z,1.27
2022-09-28T20:44:29.132Z,1.30
2022-09-28T20:47:21.997Z,1.70
2022-09-28T20:50:16.881Z,1.63
2022-09-28T20:53:10.002Z,1.52
2022-09-28T20:56:05.531Z,1.30
2022-09-28T20:58:59.095Z,1.48
2022-09-28T21:01:52.326Z,1.77
2022-09-28T21:04:45.619Z,1.95
2022-09-28T21:07:40.064Z,1.67
2022-09-28T21:10:33.040Z,1.67
2022-09-28T21:13:27.136Z,1.50
2022-09-28T21:16:19.883Z,1.50
2022-09-28T21:19:13.114Z,1.33
2022-09-28T21:22:06.777Z,1.58
2022-09-28T21:25:01.138Z,1.63
2022-09-28T21:27:53.882Z,1.38
2022-09-28T21:30:47.410Z,1.50
2022-09-28T21:33:41.509Z,1.55
2022-09-28T21:36:34.922Z,1.67
2022-09-28T21:39:28.141Z,1.40
2022-09-28T21:42:22.561Z,1.60
2022-09-28T21:45:17.237Z,1.60
2022-09-28T21:48:10.398Z,1.58
2022-09-28T21:51:06.032Z,1.70
2022-09-28T21:53:58.812Z,1.63
2022-09-28T21:56:52.485Z,1.90
2022-09-28T21:59:48.379Z,2.00
2022-09-28T22:02:42.393Z,1.38
2022-09-28T22:05:36.124Z,1.60
2022-09-28T22:08:29.200Z,1.50
2022-09-28T22:11:23.791Z,1.80
2022-09-28T22:14:17.609Z,1.33
2022-09-28T22:17:12.262Z,1.40
2022-09-28T22:20:06.547Z,1.48
2022-09-28T22:22:59.942Z,1.45
2022-09-28T22:25:58.933Z,1.60
2022-09-28T22:28:54.208Z,1.70
2022-09-28T22:31:47.289Z,1.60
2022-09-28T22:34:41.671Z,1.77
2022-09-28T22:37:34.863Z,1.98
2022-09-28T22:40:28.218Z,1.60
2022-09-28T22:43:21.180Z,1.63
2022-09-28T22:46:16.431Z,1.80
2022-09-28T22:49:11.865Z,1.50
2022-09-28T22:52:06.690Z,1.63
2022-09-28T22:55:00.164Z,1.73
2022-09-28T22:57:53.488Z,1.60
2022-09-28T23:00:47.220Z,1.60
2022-09-28T23:03:42.054Z,1.65
2022-09-28T23:06:35.360Z,1.48
2022-09-28T23:09:29.506Z,1.35
2022-09-28T23:12:23.178Z,1.50
2022-09-28T23:15:16.933Z,2.00
2022-09-28T23:18:10.828Z,1.50
2022-09-28T23:21:06.227Z,1.75
2022-09-28T23:24:01.824Z,1.73
2022-09-28T23:26:56.265Z,1.58
2022-09-28T23:29:49.062Z,1.30
2022-09-28T23:32:42.573Z,1.65
2022-09-28T23:35:36.188Z,1.40
2022-09-28T23:38:29.162Z,1.60
2022-09-28T23:41:22.348Z,1.42
2022-09-28T23:44:16.524Z,1.27
2022-09-28T23:47:10.016Z,1.50
2022-09-28T23:50:03.248Z,1.40
2022-09-28T23:52:55.899Z,1.45
2022-09-28T23:55:49.336Z,1.20
2022-09-28T23:58:42.195Z,1.58
